Time;durP1;ratioP1;P1;durP2;ratioP2;P2;SDS_P1;SDS_P2;PMS_P1;PMS_P2;Temp;Humidity;BMP_temperature;BMP_pressure;BME280_temperature;BME280_humidity;BME280_pressure;Samples;Min_cycle;Max_cycle;Signal;HPM_P1;HPM_P2
2022/10/05 00:01:47;;;;;;;;;;;15.20;99.90;;;;;;6114166;23;19982;-65
2022/10/05 00:04:22;;;;;;;;;;;15.20;99.90;;;;;;6113268;23;20409;-66
2022/10/05 00:07:07;;;;;;;;;;;15.10;99.90;;;;;;6115436;23;19924;-65
2022/10/05 00:09:33;;;;;;;;;;;15.20;99.90;;;;;;6115642;23;19991;-66
2022/10/05 00:11:59;;;;;;;;;;;15.20;99.90;;;;;;6116012;23;20237;-65
2022/10/05 00:14:30;;;;;;;;;;;15.10;99.90;;;;;;6115649;23;19932;-64
2022/10/05 00:16:55;;;;;;;;;;;15.20;99.90;;;;;;6114991;23;20422;-64
2022/10/05 00:19:29;;;;;;;;;;;15.10;99.90;;;;;;6116001;23;19928;-64
2022/10/05 00:21:58;;;;;;;;;;;15.10;99.90;;;;;;6115454;23;20013;-64
2022/10/05 00:24:23;;;;;;;;;;;15.10;99.90;;;;;;6113584;23;20360;-65
2022/10/05 00:26:49;;;;;;;;;;;15.20;99.90;;;;;;6115142;23;19925;-64
2022/10/05 00:29:22;;;;;;;;;;;15.10;99.90;;;;;;6115856;23;19957;-65
2022/10/05 00:31:47;;;;;;;;;;;15.10;99.90;;;;;;6116043;23;20008;-63
2022/10/05 00:34:13;;;;;;;;;;;15.10;99.90;;;;;;6115250;23;19957;-64
2022/10/05 00:36:39;;;;;;;;;;;15.10;99.90;;;;;;6115815;23;19925;-65
2022/10/05 00:39:05;;;;;;;;;;;15.10;99.90;;;;;;6115426;23;19982;-65
2022/10/05 00:41:33;;;;;;;;;;;15.10;99.90;;;;;;6113490;23;20015;-65
2022/10/05 00:44:17;;;;;;;;;;;15.10;99.90;;;;;;6115817;23;19932;-64
2022/10/05 00:47:01;;;;;;;;;;;15.10;99.90;;;;;;6115108;23;20003;-66
2022/10/05 00:49:27;;;;;;;;;;;15.10;99.90;;;;;;6115420;23;20010;-64
2022/10/05 00:52:10;;;;;;;;;;;15.10;99.90;;;;;;6115774;23;19928;-65
2022/10/05 00:54:39;;;;;;;;;;;15.10;99.90;;;;;;6115407;23;19929;-65
2022/10/05 00:57:12;;;;;;;;;;;15.10;99.90;;;;;;6112019;23;19940;-65
2022/10/05 00:59:56;;;;;;;;;;;15.10;99.90;;;;;;6116755;23;19971;-64
2022/10/05 01:02:40;;;;;;;;;;;15.10;99.90;;;;;;6116244;23;20241;-66
2022/10/05 01:05:11;;;;;;;;;;;15.10;99.90;;;;;;6116904;23;19925;-64
2022/10/05 01:07:40;;;;;;;;;;;15.10;99.90;;;;;;6114849;23;20314;-65
2022/10/05 01:10:09;;;;;;;;;;;15.10;99.90;;;;;;6116716;23;19932;-63
2022/10/05 01:12:52;;;;;;;;;;;15.10;99.90;;;;;;6115949;23;19928;-63
2022/10/05 01:15:30;;;;;;;;;;;15.10;99.90;;;;;;6116507;23;19932;-63
2022/10/05 01:18:00;;;;;;;;;;;15.10;99.90;;;;;;6114582;23;19924;-62
2022/10/05 01:20:29;;;;;;;;;;;15.10;99.90;;;;;;6116801;23;20008;-63
2022/10/05 01:23:14;;;;;;;;;;;15.00;99.90;;;;;;6116046;23;20012;-63
2022/10/05 01:25:58;;;;;;;;;;;15.00;99.90;;;;;;6116302;23;19947;-62
2022/10/05 01:28:34;;;;;;;;;;;14.90;99.90;;;;;;6116224;23;19928;-63
2022/10/05 01:31:05;;;;;;;;;;;14.90;99.90;;;;;;6116873;23;19928;-63
2022/10/05 01:33:36;;;;;;;;;;;15.00;99.90;;;;;;6115615;23;20359;-64
2022/10/05 01:36:08;;;;;;;;;;;14.90;99.90;;;;;;6116457;23;19999;-63
2022/10/05 01:38:41;;;;;;;;;;;14.90;99.90;;;;;;6116183;23;19932;-63
2022/10/05 01:41:32;;;;;;;;;;;14.90;99.90;;;;;;6115861;23;20350;-63
2022/10/05 01:44:08;;;;;;;;;;;14.90;99.90;;;;;;6117697;23;20018;-62
2022/10/05 01:46:33;;;;;;;;;;;14.80;99.90;;;;;;6116756;23;20399;-63
2022/10/05 01:49:08;;;;;;;;;;;14.80;99.90;;;;;;6116223;23;20304;-63
2022/10/05 01:51:33;;;;;;;;;;;14.90;99.90;;;;;;6116988;23;19925;-63
2022/10/05 01:54:25;;;;;;;;;;;14.90;99.90;;;;;;6116620;23;19929;-62
2022/10/05 01:56:56;;;;;;;;;;;14.90;99.90;;;;;;6116226;23;19929;-63
2022/10/05 01:59:22;;;;;;;;;;;14.80;99.90;;;;;;6115766;23;20302;-63
2022/10/05 02:01:59;;;;;;;;;;;14.80;99.90;;;;;;6115864;23;19933;-63
2022/10/05 02:04:32;;;;;;;;;;;14.80;99.90;;;;;;6116295;23;19924;-63
2022/10/05 02:07:00;;;;;;;;;;;14.80;99.90;;;;;;6115752;23;19999;-63
2022/10/05 02:09:28;;;;;;;;;;;14.80;99.90;;;;;;6116109;23;19971;-63
2022/10/05 02:11:59;;;;;;;;;;;14.80;99.90;;;;;;6115604;23;20293;-63
2022/10/05 02:14:27;;;;;;;;;;;14.80;99.90;;;;;;6115116;23;19925;-63
2022/10/05 02:16:54;;;;;;;;;;;14.80;99.90;;;;;;6115717;23;19978;-63
2022/10/05 02:19:26;;;;;;;;;;;14.80;99.90;;;;;;6116506;23;19925;-63
2022/10/05 02:21:58;;;;;;;;;;;14.80;99.90;;;;;;6116925;23;19924;-63
2022/10/05 02:24:27;;;;;;;;;;;14.80;99.90;;;;;;6116729;23;19925;-63
2022/10/05 02:26:54;;;;;;;;;;;14.80;99.90;;;;;;6116162;23;19925;-63
2022/10/05 02:29:22;;;;;;;;;;;14.80;99.90;;;;;;6115024;23;19925;-62
2022/10/05 02:31:56;;;;;;;;;;;14.80;99.90;;;;;;6114359;23;19929;-63
2022/10/05 02:34:29;;;;;;;;;;;14.80;99.90;;;;;;6116123;23;19932;-64
2022/10/05 02:37:13;;;;;;;;;;;14.80;99.90;;;;;;6114274;23;20328;-63
2022/10/05 02:39:48;;;;;;;;;;;14.80;99.90;;;;;;6116403;23;19992;-63
2022/10/05 02:42:28;;;;;;;;;;;14.80;99.90;;;;;;6115589;23;20311;-63
2022/10/05 02:45:00;;;;;;;;;;;14.80;99.90;;;;;;6116607;23;19987;-63
2022/10/05 02:47:34;;;;;;;;;;;14.80;99.90;;;;;;6116345;23;19932;-62
2022/10/05 02:50:06;;;;;;;;;;;14.80;99.90;;;;;;6115907;23;19925;-63
2022/10/05 02:52:48;;;;;;;;;;;14.70;99.90;;;;;;6115825;23;19932;-62
2022/10/05 02:55:34;;;;;;;;;;;14.70;99.90;;;;;;6116222;23;19971;-63
2022/10/05 02:58:34;;;;;;;;;;;14.80;99.90;;;;;;6115511;23;20348;-63
2022/10/05 03:01:18;;;;;;;;;;;14.80;99.90;;;;;;6146115;23;19996;-63
2022/10/05 03:03:50;;;;;;;;;;;14.80;99.90;;;;;;6114470;23;19932;-63
2022/10/05 03:06:20;;;;;;;;;;;14.80;99.90;;;;;;6116075;23;19992;-63
2022/10/05 03:08:50;;;;;;;;;;;14.80;99.90;;;;;;6116095;23;20330;-63
2022/10/05 03:11:34;;;;;;;;;;;14.80;99.90;;;;;;6115936;23;19994;-63
2022/10/05 03:14:12;;;;;;;;;;;14.80;99.90;;;;;;6114591;23;19968;-62
2022/10/05 03:16:53;;;;;;;;;;;14.80;99.90;;;;;;6115008;23;20356;-63
2022/10/05 03:19:37;;;;;;;;;;;14.90;99.90;;;;;;6115477;23;20347;-62
2022/10/05 03:22:21;;;;;;;;;;;14.80;99.90;;;;;;6115834;23;19925;-63
2022/10/05 03:24:55;;;;;;;;;;;14.80;99.90;;;;;;6116135;23;19947;-64
2022/10/05 03:27:22;;;;;;;;;;;14.80;99.90;;;;;;6116248;23;19924;-63
2022/10/05 03:30:02;;;;;;;;;;;14.80;99.90;;;;;;6115727;23;20066;-63
2022/10/05 03:32:27;;;;;;;;;;;14.80;99.90;;;;;;6115756;23;19951;-63
2022/10/05 03:35:01;;;;;;;;;;;14.80;99.90;;;;;;6115332;23;20384;-63
2022/10/05 03:37:30;;;;;;;;;;;14.80;99.90;;;;;;6115681;23;19925;-63
2022/10/05 03:39:55;;;;;;;;;;;14.80;99.90;;;;;;6116035;23;20238;-63
2022/10/05 03:42:24;;;;;;;;;;;14.80;99.90;;;;;;6115133;23;19966;-63
2022/10/05 03:45:22;;;;;;;;;;;14.90;99.90;;;;;;6115780;23;19931;-63
2022/10/05 03:48:01;;;;;;;;;;;14.80;99.90;;;;;;6132135;23;20275;-62
2022/10/05 03:50:36;;;;;;;;;;;14.80;99.90;;;;;;6115328;23;19925;-63
2022/10/05 03:53:04;;;;;;;;;;;14.80;99.90;;;;;;6115693;23;20259;-63
2022/10/05 03:55:35;;;;;;;;;;;14.80;99.90;;;;;;6115794;23;20341;-62
2022/10/05 03:58:30;;;;;;;;;;;14.80;99.90;;;;;;6115647;23;20288;-63
2022/10/05 04:00:58;;;;;;;;;;;14.80;99.90;;;;;;6121261;23;19925;-63
2022/10/05 04:03:33;;;;;;;;;;;14.80;99.90;;;;;;6114708;23;19971;-63
2022/10/05 04:06:03;;;;;;;;;;;14.80;99.90;;;;;;6115176;23;20260;-63
2022/10/05 04:08:38;;;;;;;;;;;14.80;99.90;;;;;;6114841;23;20299;-63
2022/10/05 04:11:07;;;;;;;;;;;14.80;99.90;;;;;;6115100;23;19925;-63
2022/10/05 04:13:37;;;;;;;;;;;14.80;99.90;;;;;;6115388;23;19925;-63
2022/10/05 04:16:07;;;;;;;;;;;14.80;99.90;;;;;;6115062;23;20399;-63
2022/10/05 04:18:37;;;;;;;;;;;14.80;99.90;;;;;;6115526;23;19925;-63
2022/10/05 04:21:10;;;;;;;;;;;14.80;99.90;;;;;;6115779;23;20000;-63
2022/10/05 04:23:46;;;;;;;;;;;14.80;99.90;;;;;;6115918;23;19932;-63
2022/10/05 04:26:14;;;;;;;;;;;14.80;99.90;;;;;;6114573;23;19925;-62
2022/10/05 04:28:59;;;;;;;;;;;14.80;99.90;;;;;;6115911;23;19994;-63
2022/10/05 04:31:40;;;;;;;;;;;14.80;99.90;;;;;;6113204;23;19971;-63
2022/10/05 04:34:25;;;;;;;;;;;14.80;99.90;;;;;;6116502;23;19932;-63
2022/10/05 04:36:58;;;;;;;;;;;14.80;99.90;;;;;;6114634;23;19936;-63
2022/10/05 04:39:27;;;;;;;;;;;14.80;99.90;;;;;;6115279;23;19948;-64
2022/10/05 04:42:11;;;;;;;;;;;15.00;99.90;;;;;;6114996;23;19925;-63
2022/10/05 04:44:46;;;;;;;;;;;14.80;99.90;;;;;;6115455;23;19932;-63
2022/10/05 04:47:14;;;;;;;;;;;14.80;99.90;;;;;;6115414;23;19970;-62
2022/10/05 04:50:03;;;;;;;;;;;14.80;99.90;;;;;;6115417;23;19925;-63
2022/10/05 04:52:35;;;;;;;;;;;14.70;99.90;;;;;;6119185;23;19929;-63
2022/10/05 04:55:03;;;;;;;;;;;14.80;99.90;;;;;;6115647;23;20287;-63
2022/10/05 04:57:29;;;;;;;;;;;14.80;99.90;;;;;;6115529;23;19999;-63
2022/10/05 05:00:04;;;;;;;;;;;14.80;99.90;;;;;;6114625;23;19966;-63
2022/10/05 05:02:30;;;;;;;;;;;14.80;99.90;;;;;;6115760;23;19925;-63
2022/10/05 05:04:58;;;;;;;;;;;14.80;99.90;;;;;;6114797;23;20228;-63
2022/10/05 05:07:38;;;;;;;;;;;14.80;99.90;;;;;;6111850;23;19951;-63
2022/10/05 05:10:07;;;;;;;;;;;14.70;99.90;;;;;;6114505;23;20251;-64
2022/10/05 05:12:44;;;;;;;;;;;14.70;99.90;;;;;;6114831;23;20180;-62
2022/10/05 05:15:33;;;;;;;;;;;14.80;99.90;;;;;;6113925;23;20244;-63
2022/10/05 05:18:08;;;;;;;;;;;14.70;99.90;;;;;;6128163;23;19925;-66
2022/10/05 05:20:54;;;;;;;;;;;14.70;99.90;;;;;;6113792;23;20313;-63
2022/10/05 05:23:26;;;;;;;;;;;14.70;99.90;;;;;;6114310;23;20461;-63
2022/10/05 05:25:55;;;;;;;;;;;14.70;99.90;;;;;;6115512;23;19925;-64
2022/10/05 05:28:23;;;;;;;;;;;14.70;99.90;;;;;;6115925;23;20336;-63
2022/10/05 05:30:59;;;;;;;;;;;14.70;99.90;;;;;;6115425;23;20003;-63
2022/10/05 05:33:26;;;;;;;;;;;14.70;99.90;;;;;;6115361;23;19932;-63
2022/10/05 05:36:12;;;;;;;;;;;14.70;99.90;;;;;;6114919;23;19925;-63
2022/10/05 05:38:41;;;;;;;;;;;14.70;99.90;;;;;;6115617;23;19929;-63
2022/10/05 05:41:07;;;;;;;;;;;14.70;99.90;;;;;;6116297;23;19925;-63
2022/10/05 05:43:59;;;;;;;;;;;14.70;99.90;;;;;;6115537;23;20000;-63
2022/10/05 05:46:32;;;;;;;;;;;14.70;99.90;;;;;;6115051;23;19932;-63
2022/10/05 05:48:59;;;;;;;;;;;14.70;99.90;;;;;;6115724;23;19933;-64
2022/10/05 05:51:48;;;;;;;;;;;14.70;99.90;;;;;;6115435;23;19929;-63
2022/10/05 05:54:26;;;;;;;;;;;14.70;99.90;;;;;;6119409;23;19925;-63
2022/10/05 05:57:21;;;;;;;;;;;14.70;99.90;;;;;;6116301;23;19931;-63
2022/10/05 05:59:50;;;;;;;;;;;14.70;99.90;;;;;;6122487;23;19925;-64
2022/10/05 06:02:18;;;;;;;;;;;14.70;99.90;;;;;;6116078;23;19948;-63
2022/10/05 06:04:46;;;;;;;;;;;14.80;99.90;;;;;;6115814;23;19925;-63
2022/10/05 06:07:15;;;;;;;;;;;14.70;99.90;;;;;;6111978;23;19932;-64
2022/10/05 06:10:06;;;;;;;;;;;14.70;99.90;;;;;;6115764;23;19931;-63
2022/10/05 06:12:38;;;;;;;;;;;14.70;99.90;;;;;;6127215;23;19925;-63
2022/10/05 06:15:19;;;;;;;;;;;14.70;99.90;;;;;;6115722;23;20343;-63
2022/10/05 06:17:47;;;;;;;;;;;14.70;99.90;;;;;;6115578;23;19967;-63
2022/10/05 06:20:21;;;;;;;;;;;14.80;99.90;;;;;;6113749;23;20255;-63
2022/10/05 06:22:48;;;;;;;;;;;14.80;99.90;;;;;;6115450;23;20362;-63
2022/10/05 06:25:20;;;;;;;;;;;14.70;99.90;;;;;;6115089;23;19925;-64
2022/10/05 06:28:00;;;;;;;;;;;14.80;99.90;;;;;;6116099;23;19924;-63
2022/10/05 06:30:31;;;;;;;;;;;14.80;99.90;;;;;;6115921;23;19999;-63
2022/10/05 06:32:59;;;;;;;;;;;14.80;99.90;;;;;;6114994;23;19978;-63
2022/10/05 06:35:28;;;;;;;;;;;14.80;99.90;;;;;;6114171;23;19925;-63
2022/10/05 06:38:04;;;;;;;;;;;14.80;99.90;;;;;;6115063;23;19925;-64
2022/10/05 06:40:41;;;;;;;;;;;14.90;99.90;;;;;;6113931;23;19929;-64
2022/10/05 06:43:27;;;;;;;;;;;14.80;99.90;;;;;;6115326;23;20333;-64
2022/10/05 06:46:11;;;;;;;;;;;14.80;99.90;;;;;;6120697;23;19978;-65
2022/10/05 06:48:59;;;;;;;;;;;14.80;99.90;;;;;;6115107;23;19925;-64
2022/10/05 06:51:27;;;;;;;;;;;14.80;99.90;;;;;;6114083;23;20367;-65
2022/10/05 06:54:11;;;;;;;;;;;14.80;99.90;;;;;;6115594;23;19925;-65
2022/10/05 06:56:55;;;;;;;;;;;14.90;99.90;;;;;;6115960;23;19925;-66
2022/10/05 06:59:29;;;;;;;;;;;14.80;99.90;;;;;;6115641;23;19932;-63
2022/10/05 07:01:57;;;;;;;;;;;14.80;99.90;;;;;;6110699;23;19925;-65
2022/10/05 07:04:43;;;;;;;;;;;14.90;99.90;;;;;;6112100;23;19979;-65
2022/10/05 07:07:09;;;;;;;;;;;14.90;99.90;;;;;;6116881;23;19947;-65
2022/10/05 07:09:51;;;;;;;;;;;14.80;99.90;;;;;;6111721;23;20328;-64
2022/10/05 07:12:22;;;;;;;;;;;14.80;99.90;;;;;;6111984;23;19925;-64
2022/10/05 07:15:00;;;;;;;;;;;14.80;99.90;;;;;;6108676;23;19998;-65
2022/10/05 07:17:37;;;;;;;;;;;14.80;99.90;;;;;;6112048;23;19949;-66
2022/10/05 07:20:15;;;;;;;;;;;14.80;99.90;;;;;;6113664;23;19971;-64
2022/10/05 07:22:54;;;;;;;;;;;14.80;99.90;;;;;;6113442;23;19924;-66
2022/10/05 07:25:27;;;;;;;;;;;14.90;99.90;;;;;;6112797;23;19964;-65
2022/10/05 07:28:08;;;;;;;;;;;14.90;99.90;;;;;;6112884;23;19925;-65
2022/10/05 07:30:39;;;;;;;;;;;14.90;99.90;;;;;;6111957;23;19925;-66
2022/10/05 07:33:27;;;;;;;;;;;15.00;99.90;;;;;;6113483;23;19925;-66
2022/10/05 07:38:46;;;;;;;;;;;15.10;99.90;;;;;;6114512;23;20034;-64
2022/10/05 07:41:24;;;;;;;;;;;15.20;99.90;;;;;;6112915;23;20423;-64
2022/10/05 07:43:56;;;;;;;;;;;15.20;99.90;;;;;;6113912;23;20387;-64
2022/10/05 07:46:31;;;;;;;;;;;15.20;99.90;;;;;;6113801;23;19978;-67
2022/10/05 07:49:12;;;;;;;;;;;15.20;99.90;;;;;;6113571;23;20260;-65
2022/10/05 07:51:40;;;;;;;;;;;15.20;99.90;;;;;;6112486;23;20288;-64
2022/10/05 07:54:21;;;;;;;;;;;15.40;99.90;;;;;;6113642;23;19971;-64
2022/10/05 07:57:12;;;;;;;;;;;15.30;99.90;;;;;;6114429;23;19943;-65
2022/10/05 07:59:51;;;;;;;;;;;15.40;99.90;;;;;;6113442;23;20328;-64
2022/10/05 08:02:16;;;;;;;;;;;15.40;99.90;;;;;;6113895;23;20319;-64
2022/10/05 08:04:51;;;;;;;;;;;15.40;99.90;;;;;;6113689;23;19932;-64
2022/10/05 08:07:17;;;;;;;;;;;15.40;99.90;;;;;;6113487;23;19978;-66
2022/10/05 08:10:04;;;;;;;;;;;15.50;99.90;;;;;;6113816;23;19924;-64
2022/10/05 08:12:38;;;;;;;;;;;15.50;99.90;;;;;;6114021;23;20351;-64
2022/10/05 08:15:10;;;;;;;;;;;15.50;99.90;;;;;;6111885;23;19925;-63
2022/10/05 08:17:38;;;;;;;;;;;15.60;99.90;;;;;;6113512;23;19925;-64
2022/10/05 08:20:04;;;;;;;;;;;15.70;99.90;;;;;;6113949;23;19925;-63
2022/10/05 08:22:33;;;;;;;;;;;15.70;99.90;;;;;;6113768;23;20331;-65
2022/10/05 08:25:01;;;;;;;;;;;15.80;99.90;;;;;;6113664;23;19931;-63
2022/10/05 08:27:42;;;;;;;;;;;15.90;99.90;;;;;;6112202;23;20433;-63
2022/10/05 08:30:09;;;;;;;;;;;15.90;99.90;;;;;;6111672;23;20326;-64
2022/10/05 08:32:38;;;;;;;;;;;15.80;99.90;;;;;;6111090;23;19925;-64
2022/10/05 08:35:32;;;;;;;;;;;15.80;99.90;;;;;;6112823;23;20003;-62
2022/10/05 08:38:00;;;;;;;;;;;15.80;99.90;;;;;;6119940;23;19929;-65
2022/10/05 08:40:29;;;;;;;;;;;15.90;99.90;;;;;;6114240;23;20232;-63
2022/10/05 08:43:07;;;;;;;;;;;16.00;99.90;;;;;;6113431;23;20357;-63
2022/10/05 08:45:52;;;;;;;;;;;16.20;99.90;;;;;;6114184;23;19925;-63
2022/10/05 08:48:26;;;;;;;;;;;16.30;99.90;;;;;;6113634;23;19932;-65
2022/10/05 08:50:57;;;;;;;;;;;16.40;99.90;;;;;;6113606;23;19933;-64
2022/10/05 08:53:34;;;;;;;;;;;16.50;99.90;;;;;;6112767;23;19931;-66
2022/10/05 08:56:21;;;;;;;;;;;16.50;99.90;;;;;;6113870;23;19929;-64
2022/10/05 08:58:56;;;;;;;;;;;16.70;99.90;;;;;;6113901;23;19925;-66
2022/10/05 09:01:30;;;;;;;;;;;16.90;99.90;;;;;;6112039;23;19931;-65
2022/10/05 09:04:02;;;;;;;;;;;16.90;99.90;;;;;;6112055;23;19932;-65
2022/10/05 09:06:46;;;;;;;;;;;17.10;99.90;;;;;;6113278;23;19925;-64
2022/10/05 09:09:12;;;;;;;;;;;17.00;99.90;;;;;;6112659;23;20493;-65
2022/10/05 09:11:56;;;;;;;;;;;17.10;99.90;;;;;;6113210;23;19925;-63
2022/10/05 09:14:40;;;;;;;;;;;17.20;99.90;;;;;;6113809;23;19929;-64
2022/10/05 09:17:17;;;;;;;;;;;17.20;99.90;;;;;;6113230;23;20021;-64
2022/10/05 09:19:58;;;;;;;;;;;17.50;99.90;;;;;;6114935;23;19978;-67
2022/10/05 09:22:30;;;;;;;;;;;17.50;99.90;;;;;;6114852;23;19924;-65
2022/10/05 09:24:57;;;;;;;;;;;17.50;99.90;;;;;;6114397;23;20302;-65
2022/10/05 09:27:33;;;;;;;;;;;17.60;99.90;;;;;;6115215;23;19952;-65
2022/10/05 09:30:15;;;;;;;;;;;17.60;99.90;;;;;;6115990;23;20000;-64
2022/10/05 09:32:40;;;;;;;;;;;17.70;99.90;;;;;;6114255;23;20640;-64
2022/10/05 09:35:28;;;;;;;;;;;17.70;99.90;;;;;;6114640;23;19955;-64
2022/10/05 09:38:02;;;;;;;;;;;17.70;99.90;;;;;;6114486;23;20255;-67
2022/10/05 09:40:46;;;;;;;;;;;17.70;99.90;;;;;;6114492;23;20573;-68
2022/10/05 09:43:30;;;;;;;;;;;17.70;99.90;;;;;;6115803;23;20209;-67
2022/10/05 09:46:09;;;;;;;;;;;17.90;99.90;;;;;;6115831;23;20204;-66
2022/10/05 09:48:35;;;;;;;;;;;17.90;99.90;;;;;;6114898;23;20393;-65
2022/10/05 09:51:19;;;;;;;;;;;17.90;99.90;;;;;;6115408;23;19924;-64
2022/10/05 09:53:59;;;;;;;;;;;17.80;99.90;;;;;;6115427;23;19925;-67
2022/10/05 09:56:24;;;;;;;;;;;17.80;99.90;;;;;;6116170;23;19978;-67
2022/10/05 09:58:50;;;;;;;;;;;17.80;99.90;;;;;;6115201;23;19925;-66
2022/10/05 10:01:15;;;;;;;;;;;17.80;99.90;;;;;;6114630;23;19987;-66
2022/10/05 10:03:56;;;;;;;;;;;17.70;99.90;;;;;;6114944;23;19933;-67
2022/10/05 10:06:41;;;;;;;;;;;17.60;99.90;;;;;;6115164;23;20280;-67
2022/10/05 10:09:25;;;;;;;;;;;17.40;99.90;;;;;;6115293;23;19925;-67
2022/10/05 10:12:10;;;;;;;;;;;17.60;99.90;;;;;;6115838;23;19929;-67
2022/10/05 10:14:38;;;;;;;;;;;17.60;99.90;;;;;;6114792;23;19932;-64
2022/10/05 10:17:30;;;;;;;;;;;17.70;99.90;;;;;;6114795;23;20215;-65
2022/10/05 10:20:01;;;;;;;;;;;17.70;99.90;;;;;;6125420;23;19932;-64
2022/10/05 10:22:30;;;;;;;;;;;17.70;99.90;;;;;;6115168;23;19932;-64
2022/10/05 10:25:22;;;;;;;;;;;17.60;99.90;;;;;;6114853;23;20008;-64
2022/10/05 10:27:52;;;;;;;;;;;17.40;99.90;;;;;;6115581;23;20544;-65
2022/10/05 10:30:22;;;;;;;;;;;17.50;99.90;;;;;;6114354;23;19932;-66
2022/10/05 10:32:50;;;;;;;;;;;17.40;99.90;;;;;;6114683;23;20347;-64
2022/10/05 10:35:19;;;;;;;;;;;17.40;99.90;;;;;;6114918;23;19947;-64
2022/10/05 10:38:03;;;;;;;;;;;17.30;99.90;;;;;;6115093;23;19948;-63
2022/10/05 10:40:34;;;;;;;;;;;17.50;99.90;;;;;;6113511;23;19936;-64
2022/10/05 10:43:15;;;;;;;;;;;17.50;99.90;;;;;;6110782;23;19987;-64
2022/10/05 10:46:07;;;;;;;;;;;16.40;99.90;;;;;;6115070;23;19964;-64
2022/10/05 10:48:47;;;;;;;;;;;17.30;99.90;;;;;;6125409;23;19925;-64
2022/10/05 10:51:12;;;;;;;;;;;17.30;99.90;;;;;;6115158;23;19932;-64
2022/10/05 10:53:38;;;;;;;;;;;17.10;99.90;;;;;;6114006;23;19929;-64
2022/10/05 10:56:12;;;;;;;;;;;17.20;99.90;;;;;;6113606;23;19979;-65
2022/10/05 10:59:00;;;;;;;;;;;17.20;99.90;;;;;;6113661;23;19936;-64
2022/10/05 11:01:49;;;;;;;;;;;17.20;99.90;;;;;;6113925;23;20008;-64
2022/10/05 11:04:38;;;;;;;;;;;17.20;99.90;;;;;;6113488;23;19925;-66
2022/10/05 11:07:03;;;;;;;;;;;17.10;99.90;;;;;;6114668;23;19925;-65
2022/10/05 11:09:48;;;;;;;;;;;17.10;99.90;;;;;;6114225;23;19932;-65
2022/10/05 11:12:36;;;;;;;;;;;17.20;99.90;;;;;;6113637;23;20397;-64
2022/10/05 11:15:20;;;;;;;;;;;17.20;99.90;;;;;;6115485;23;20007;-64
2022/10/05 11:17:58;;;;;;;;;;;17.40;99.90;;;;;;6114451;23;20090;-65
2022/10/05 11:20:24;;;;;;;;;;;17.30;99.90;;;;;;6115307;23;19991;-66
2022/10/05 11:23:13;;;;;;;;;;;17.40;99.90;;;;;;6113378;23;20331;-65
2022/10/05 11:25:41;;;;;;;;;;;17.30;99.90;;;;;;6118037;23;20004;-66
2022/10/05 11:28:07;;;;;;;;;;;17.40;99.90;;;;;;6114065;23;20362;-64
2022/10/05 11:30:35;;;;;;;;;;;17.30;99.90;;;;;;6114575;23;19924;-64
2022/10/05 11:33:20;;;;;;;;;;;17.20;99.90;;;;;;6112279;23;19931;-66
2022/10/05 11:35:51;;;;;;;;;;;17.30;99.90;;;;;;6113774;23;20333;-64
2022/10/05 11:38:25;;;;;;;;;;;17.30;99.90;;;;;;6113891;23;19978;-64
2022/10/05 11:40:57;;;;;;;;;;;17.30;99.90;;;;;;6113907;23;19925;-64
2022/10/05 11:43:25;;;;;;;;;;;17.30;99.90;;;;;;6115667;23;19925;-63
2022/10/05 11:46:09;;;;;;;;;;;17.30;99.90;;;;;;6113257;23;19948;-66
2022/10/05 11:48:47;;;;;;;;;;;17.20;99.90;;;;;;6113561;23;19932;-64
2022/10/05 11:51:15;;;;;;;;;;;17.30;99.90;;;;;;6113451;23;19925;-65
2022/10/05 11:53:50;;;;;;;;;;;17.30;99.90;;;;;;6113399;23;19925;-65
2022/10/05 11:56:20;;;;;;;;;;;17.30;99.90;;;;;;6113868;23;19925;-66
2022/10/05 11:58:46;;;;;;;;;;;17.30;99.90;;;;;;6114200;23;19968;-66
2022/10/05 12:01:16;;;;;;;;;;;17.20;99.90;;;;;;6112830;23;20351;-66
2022/10/05 12:04:00;;;;;;;;;;;17.20;99.90;;;;;;6113728;23;19932;-64
2022/10/05 12:06:42;;;;;;;;;;;17.20;99.90;;;;;;6114643;23;19925;-66
2022/10/05 12:10:12;;;;;;;;;;;17.10;99.90;;;;;;6114040;23;20310;-66
2022/10/05 12:12:34;;;;;;;;;;;17.10;99.90;;;;;;6144598;23;19929;-67
2022/10/05 12:15:06;;;;;;;;;;;17.20;99.90;;;;;;6115491;23;20457;-66
2022/10/05 12:17:36;;;;;;;;;;;17.20;99.90;;;;;;6114475;23;19925;-65
2022/10/05 12:20:22;;;;;;;;;;;17.20;99.90;;;;;;6115264;23;19925;-66
2022/10/05 12:22:47;;;;;;;;;;;17.10;99.90;;;;;;6113897;23;19925;-66
2022/10/05 12:25:22;;;;;;;;;;;17.20;99.90;;;;;;6113678;23;19947;-66
2022/10/05 12:27:52;;;;;;;;;;;17.20;99.90;;;;;;6114725;23;19925;-66
2022/10/05 12:30:17;;;;;;;;;;;17.10;99.90;;;;;;6111935;23;19925;-66
2022/10/05 12:32:52;;;;;;;;;;;17.20;99.90;;;;;;6113968;23;20343;-64
2022/10/05 12:35:26;;;;;;;;;;;17.10;99.90;;;;;;6113079;23;20240;-66
2022/10/05 12:37:52;;;;;;;;;;;17.20;99.90;;;;;;6113866;23;20339;-65
2022/10/05 12:40:26;;;;;;;;;;;17.20;99.90;;;;;;6112397;23;20340;-66
2022/10/05 12:42:58;;;;;;;;;;;17.10;99.90;;;;;;6113168;23;19924;-66
2022/10/05 12:45:48;;;;;;;;;;;17.30;99.90;;;;;;6112705;23;20292;-66
2022/10/05 12:48:13;;;;;;;;;;;17.30;99.90;;;;;;6127162;23;19992;-64
2022/10/05 12:50:48;;;;;;;;;;;17.30;99.90;;;;;;6113280;23;19972;-65
2022/10/05 12:53:22;;;;;;;;;;;17.30;99.90;;;;;;6111912;23;20312;-66
2022/10/05 12:56:07;;;;;;;;;;;17.30;99.90;;;;;;6114099;23;19928;-67
2022/10/05 12:58:39;;;;;;;;;;;17.30;99.90;;;;;;6114985;23;19931;-66
2022/10/05 13:01:24;;;;;;;;;;;17.30;99.90;;;;;;6114337;23;19925;-66
2022/10/05 13:04:02;;;;;;;;;;;17.30;99.90;;;;;;6114880;23;19925;-64
2022/10/05 13:06:27;;;;;;;;;;;17.40;99.90;;;;;;6112327;23;20620;-65
2022/10/05 13:09:02;;;;;;;;;;;17.40;99.90;;;;;;6114220;23;19925;-66
2022/10/05 13:11:34;;;;;;;;;;;17.30;99.90;;;;;;6115488;23;19925;-66
2022/10/05 13:14:19;;;;;;;;;;;17.30;99.90;;;;;;6114632;23;19929;-65
2022/10/05 13:16:54;;;;;;;;;;;17.40;99.90;;;;;;6114229;23;19929;-65
2022/10/05 13:19:20;;;;;;;;;;;17.40;99.90;;;;;;6115323;23;19932;-66
2022/10/05 13:21:48;;;;;;;;;;;17.30;99.90;;;;;;6115604;23;19925;-64
2022/10/05 13:24:26;;;;;;;;;;;17.40;99.90;;;;;;6115583;23;20340;-64
2022/10/05 13:27:02;;;;;;;;;;;17.40;99.90;;;;;;6111798;23;19954;-65
2022/10/05 13:29:36;;;;;;;;;;;17.40;99.90;;;;;;6111824;23;19925;-64
2022/10/05 13:32:06;;;;;;;;;;;17.40;99.90;;;;;;6113116;23;19925;-65
2022/10/05 13:35:07;;;;;;;;;;;17.50;99.90;;;;;;6112967;23;20069;-64
2022/10/05 13:37:36;;;;;;;;;;;17.70;99.90;;;;;;6143116;23;20288;-64
2022/10/05 13:40:21;;;;;;;;;;;17.90;99.90;;;;;;6120112;23;19932;-65
2022/10/05 13:42:54;;;;;;;;;;;18.00;99.90;;;;;;6112877;23;19924;-64
2022/10/05 13:45:24;;;;;;;;;;;18.20;99.90;;;;;;6113870;23;19925;-66
2022/10/05 13:47:55;;;;;;;;;;;18.30;99.90;;;;;;6113749;23;19925;-67
2022/10/05 13:50:24;;;;;;;;;;;18.30;99.90;;;;;;6114106;23;19999;-66
2022/10/05 13:53:23;;;;;;;;;;;18.40;99.90;;;;;;6113639;23;19925;-66
2022/10/05 13:55:55;;;;;;;;;;;18.40;99.90;;;;;;6129335;23;19933;-68
2022/10/05 13:58:25;;;;;;;;;;;18.40;99.90;;;;;;6111949;23;20368;-67
2022/10/05 14:00:56;;;;;;;;;;;18.20;99.90;;;;;;6112166;23;20351;-66
2022/10/05 14:03:26;;;;;;;;;;;18.30;99.90;;;;;;6113227;23;20401;-64
2022/10/05 14:05:58;;;;;;;;;;;18.40;99.90;;;;;;6110761;23;20333;-64
2022/10/05 14:08:26;;;;;;;;;;;18.60;99.90;;;;;;6114424;23;20389;-66
2022/10/05 14:10:53;;;;;;;;;;;18.60;99.90;;;;;;6112192;23;19925;-66
2022/10/05 14:13:30;;;;;;;;;;;18.50;99.90;;;;;;6113571;23;20012;-66
2022/10/05 14:16:03;;;;;;;;;;;18.50;99.90;;;;;;6112801;23;20332;-66
2022/10/05 14:18:30;;;;;;;;;;;18.30;99.90;;;;;;6114508;23;19951;-65
2022/10/05 14:20:57;;;;;;;;;;;18.40;99.90;;;;;;6114112;23;19964;-66
2022/10/05 14:23:26;;;;;;;;;;;18.10;99.90;;;;;;6113646;23;19928;-67
2022/10/05 14:25:54;;;;;;;;;;;18.10;99.90;;;;;;6114096;23;19932;-64
2022/10/05 14:28:33;;;;;;;;;;;18.20;99.90;;;;;;6114936;23;19925;-66
2022/10/05 14:31:00;;;;;;;;;;;18.30;99.90;;;;;;6114415;23;19929;-66
2022/10/05 14:33:30;;;;;;;;;;;18.60;99.90;;;;;;6113923;23;20360;-66
2022/10/05 14:35:56;;;;;;;;;;;18.30;99.90;;;;;;6116114;23;19932;-66
2022/10/05 14:38:28;;;;;;;;;;;18.50;99.90;;;;;;6115176;23;19931;-64
2022/10/05 14:41:17;;;;;;;;;;;18.50;99.90;;;;;;6115408;23;19925;-64
2022/10/05 14:43:50;;;;;;;;;;;18.50;99.90;;;;;;6119745;23;20003;-67
2022/10/05 14:46:15;;;;;;;;;;;18.50;99.90;;;;;;6116379;23;20014;-65
2022/10/05 14:48:42;;;;;;;;;;;18.30;99.90;;;;;;6114958;23;20569;-64
2022/10/05 14:51:30;;;;;;;;;;;18.30;99.90;;;;;;6116076;23;19925;-64
2022/10/05 14:54:17;;;;;;;;;;;18.30;99.90;;;;;;6114200;23;19960;-64
2022/10/05 14:56:46;;;;;;;;;;;18.20;99.90;;;;;;6113453;23;20429;-65
2022/10/05 14:59:13;;;;;;;;;;;18.20;99.90;;;;;;6110925;23;19960;-64
2022/10/05 15:01:43;;;;;;;;;;;18.20;99.90;;;;;;6110792;23;19932;-64
2022/10/05 15:04:29;;;;;;;;;;;18.10;99.90;;;;;;6110738;23;19928;-66